ETNL/RLG METAR and TAF weather

Enter ICAO airport designator
Station Type Date Time Source
ETNL METAR 2022/01/25 04:20 UTC NOAA

ETNL 250420Z 24005KT 5000 -DZ BKN007 03/02 Q1030 GRN


Station Type Date Time Source
ETNL Decoded METAR 2022/01/25 04:20 UTC NOAA

Laage, Germany (ETNL) 53-55N 012-17E 46M
Jan 24, 2022 - 11:20 PM EST / 2022.01.25 0420 UTC
Wind: from the WSW (240 degrees) at 6 MPH (5 KT):0
Visibility: 3 mile(s):0
Sky conditions: mostly cloudy
Weather: light drizzle
Temperature: 37 F (3 C)
Dew Point: 35 F (2 C)
Relative Humidity: 93%
Pressure (altimeter): 30.42 in. Hg (1030 hPa)
ob: ETNL 250420Z 24005KT 5000 -DZ BKN007 03/02 Q1030 GRN
cycle: 4

Station Type Date Time Source
ETNL TAF 2021/04/25 17:35 UTC NOAA

TAF ETNL 251600Z 2517/2606 30005KT 9999 NSW FEW060 BY ETGL

Example: see airport list